sensor_id;sensor_type;location;lat;lon;timestamp;pressure;altitude;pressure_sealevel;temperature;humidity
51297;BME280;37380;45.186;9.792;2022-12-20T00:00:27;102591.25;;;4.40;100.00
51297;BME280;37380;45.186;9.792;2022-12-20T00:03:31;102602.94;;;4.26;100.00
51297;BME280;37380;45.186;9.792;2022-12-20T00:06:34;102668.13;;;4.89;100.00
51297;BME280;37380;45.186;9.792;2022-12-20T00:09:32;102706.25;;;4.81;100.00
51297;BME280;37380;45.186;9.792;2022-12-20T00:12:09;102674.09;;;4.69;100.00
51297;BME280;37380;45.186;9.792;2022-12-20T00:15:06;102517.72;;;3.90;100.00
51297;BME280;37380;45.186;9.792;2022-12-20T00:17:33;102498.81;;;3.61;100.00
51297;BME280;37380;45.186;9.792;2022-12-20T00:20:01;102644.38;;;4.55;100.00
51297;BME280;37380;45.186;9.792;2022-12-20T00:22:28;102614.09;;;4.35;100.00
51297;BME280;37380;45.186;9.792;2022-12-20T00:24:55;102572.94;;;4.09;100.00
51297;BME280;37380;45.186;9.792;2022-12-20T00:27:22;102521.50;;;3.93;100.00
51297;BME280;37380;45.186;9.792;2022-12-20T00:29:56;102667.81;;;4.86;100.00
51297;BME280;37380;45.186;9.792;2022-12-20T00:32:53;102658.31;;;4.76;100.00
51297;BME280;37380;45.186;9.792;2022-12-20T00:35:42;102610.16;;;4.49;100.00
51297;BME280;37380;45.186;9.792;2022-12-20T00:38:35;102474.78;;;3.62;100.00
51297;BME280;37380;45.186;9.792;2022-12-20T00:41:09;102679.91;;;4.66;100.00
51297;BME280;37380;45.186;9.792;2022-12-20T00:43:38;102633.94;;;4.45;100.00
51297;BME280;37380;45.186;9.792;2022-12-20T00:46:07;102706.44;;;4.93;100.00
51297;BME280;37380;45.186;9.792;2022-12-20T00:48:34;102683.56;;;4.97;100.00
51297;BME280;37380;45.186;9.792;2022-12-20T00:51:07;102606.34;;;4.64;100.00
51297;BME280;37380;45.186;9.792;2022-12-20T00:53:35;102668.75;;;4.86;100.00
51297;BME280;37380;45.186;9.792;2022-12-20T00:56:04;102350.75;;;2.87;100.00
51297;BME280;37380;45.186;9.792;2022-12-20T00:58:33;102682.59;;;4.87;100.00
51297;BME280;37380;45.186;9.792;2022-12-20T01:01:02;102545.25;;;4.08;100.00
51297;BME280;37380;45.186;9.792;2022-12-20T01:03:32;102633.38;;;4.58;100.00
51297;BME280;37380;45.186;9.792;2022-12-20T01:06:01;102668.31;;;4.82;100.00
51297;BME280;37380;45.186;9.792;2022-12-20T01:09:02;102672.81;;;5.03;100.00
51297;BME280;37380;45.186;9.792;2022-12-20T01:12:03;102663.75;;;4.98;100.00
51297;BME280;37380;45.186;9.792;2022-12-20T01:15:05;102672.84;;;5.13;100.00
51297;BME280;37380;45.186;9.792;2022-12-20T01:17:59;102506.59;;;4.09;100.00
51297;BME280;37380;45.186;9.792;2022-12-20T01:20:26;102629.47;;;4.82;100.00
51297;BME280;37380;45.186;9.792;2022-12-20T01:22:54;102590.78;;;4.54;100.00
51297;BME280;37380;45.186;9.792;2022-12-20T01:25:27;102628.38;;;4.69;100.00
51297;BME280;37380;45.186;9.792;2022-12-20T01:28:21;102604.31;;;4.70;100.00
51297;BME280;37380;45.186;9.792;2022-12-20T01:30:55;102585.72;;;4.56;100.00
51297;BME280;37380;45.186;9.792;2022-12-20T01:33:43;102606.13;;;4.71;100.00
51297;BME280;37380;45.186;9.792;2022-12-20T01:36:14;102658.69;;;4.99;100.00
51297;BME280;37380;45.186;9.792;2022-12-20T01:38:42;102480.81;;;4.01;100.00
51297;BME280;37380;45.186;9.792;2022-12-20T01:41:21;102480.34;;;3.86;100.00
51297;BME280;37380;45.186;9.792;2022-12-20T01:47:32;102435.72;;;3.78;100.00
51297;BME280;37380;45.186;9.792;2022-12-20T01:50:26;102293.06;;;2.86;100.00
51297;BME280;37380;45.186;9.792;2022-12-20T01:53:10;102380.47;;;3.49;100.00
51297;BME280;37380;45.186;9.792;2022-12-20T01:55:53;102495.13;;;4.16;100.00
51297;BME280;37380;45.186;9.792;2022-12-20T01:58:36;102506.81;;;3.83;100.00
51297;BME280;37380;45.186;9.792;2022-12-20T02:01:13;102488.28;;;3.98;100.00
51297;BME280;37380;45.186;9.792;2022-12-20T02:04:00;102631.69;;;4.77;100.00
51297;BME280;37380;45.186;9.792;2022-12-20T02:06:50;102454.72;;;3.79;100.00
51297;BME280;37380;45.186;9.792;2022-12-20T02:10:05;102629.75;;;4.85;100.00
51297;BME280;37380;45.186;9.792;2022-12-20T02:23:32;102630.25;;;4.81;100.00
51297;BME280;37380;45.186;9.792;2022-12-20T02:33:25;102461.84;;;3.81;100.00
51297;BME280;37380;45.186;9.792;2022-12-20T02:35:57;102642.41;;;4.71;100.00
51297;BME280;37380;45.186;9.792;2022-12-20T02:38:33;102491.81;;;3.79;100.00
51297;BME280;37380;45.186;9.792;2022-12-20T02:41:22;102623.03;;;4.87;100.00
51297;BME280;37380;45.186;9.792;2022-12-20T02:44:07;102253.72;;;2.70;100.00
51297;BME280;37380;45.186;9.792;2022-12-20T02:47:39;102451.53;;;3.92;100.00
51297;BME280;37380;45.186;9.792;2022-12-20T02:50:26;102300.25;;;2.99;100.00
51297;BME280;37380;45.186;9.792;2022-12-20T02:53:09;102239.38;;;2.44;100.00
51297;BME280;37380;45.186;9.792;2022-12-20T03:02:22;102600.72;;;4.79;100.00
51297;BME280;37380;45.186;9.792;2022-12-20T03:14:25;102476.44;;;4.10;100.00
51297;BME280;37380;45.186;9.792;2022-12-20T03:17:07;102222.16;;;2.54;100.00
51297;BME280;37380;45.186;9.792;2022-12-20T03:19:52;102415.56;;;3.84;100.00
51297;BME280;37380;45.186;9.792;2022-12-20T03:22:43;102554.72;;;4.66;100.00
51297;BME280;37380;45.186;9.792;2022-12-20T03:25:14;102437.72;;;3.72;100.00
51297;BME280;37380;45.186;9.792;2022-12-20T03:27:50;102265.22;;;2.92;100.00
51297;BME280;37380;45.186;9.792;2022-12-20T03:30:38;102557.16;;;4.64;100.00
51297;BME280;37380;45.186;9.792;2022-12-20T03:34:05;102221.22;;;2.72;100.00
51297;BME280;37380;45.186;9.792;2022-12-20T03:37:04;102581.53;;;4.76;100.00
51297;BME280;37380;45.186;9.792;2022-12-20T03:39:54;102460.28;;;3.83;100.00
51297;BME280;37380;45.186;9.792;2022-12-20T03:42:32;102359.59;;;3.56;100.00
51297;BME280;37380;45.186;9.792;2022-12-20T03:45:25;102235.13;;;2.93;100.00
51297;BME280;37380;45.186;9.792;2022-12-20T03:48:41;102214.56;;;2.84;100.00
51297;BME280;37380;45.186;9.792;2022-12-20T03:51:15;102310.38;;;3.06;100.00
51297;BME280;37380;45.186;9.792;2022-12-20T03:54:18;102566.25;;;4.69;100.00
51297;BME280;37380;45.186;9.792;2022-12-20T03:57:08;102226.38;;;2.72;100.00
51297;BME280;37380;45.186;9.792;2022-12-20T03:59:50;102586.19;;;4.70;100.00
51297;BME280;37380;45.186;9.792;2022-12-20T04:02:32;102536.47;;;4.35;100.00
51297;BME280;37380;45.186;9.792;2022-12-20T04:05:34;102584.03;;;4.56;100.00
51297;BME280;37380;45.186;9.792;2022-12-20T04:08:08;102522.34;;;4.31;100.00
51297;BME280;37380;45.186;9.792;2022-12-20T04:11:02;102457.50;;;3.91;100.00
51297;BME280;37380;45.186;9.792;2022-12-20T04:13:59;102450.72;;;3.63;100.00
51297;BME280;37380;45.186;9.792;2022-12-20T04:16:54;102519.13;;;4.05;100.00
51297;BME280;37380;45.186;9.792;2022-12-20T04:19:22;102439.22;;;3.60;100.00
51297;BME280;37380;45.186;9.792;2022-12-20T04:21:49;102436.00;;;3.62;100.00
51297;BME280;37380;45.186;9.792;2022-12-20T04:24:18;102446.59;;;3.84;100.00
51297;BME280;37380;45.186;9.792;2022-12-20T04:27:11;102529.66;;;4.46;100.00
51297;BME280;37380;45.186;9.792;2022-12-20T04:29:45;102441.19;;;3.92;100.00
51297;BME280;37380;45.186;9.792;2022-12-20T04:32:46;102469.00;;;3.94;100.00
51297;BME280;37380;45.186;9.792;2022-12-20T04:35:21;102412.03;;;3.74;100.00
51297;BME280;37380;45.186;9.792;2022-12-20T04:37:48;102486.31;;;4.14;100.00
51297;BME280;37380;45.186;9.792;2022-12-20T04:40:16;102464.75;;;3.95;100.00
51297;BME280;37380;45.186;9.792;2022-12-20T04:42:59;102390.25;;;3.61;100.00
51297;BME280;37380;45.186;9.792;2022-12-20T04:45:54;102447.53;;;3.95;100.00
51297;BME280;37380;45.186;9.792;2022-12-20T04:48:54;102439.94;;;3.78;100.00
51297;BME280;37380;45.186;9.792;2022-12-20T04:51:24;102333.66;;;3.35;100.00
51297;BME280;37380;45.186;9.792;2022-12-20T04:53:52;102552.44;;;4.50;100.00
51297;BME280;37380;45.186;9.792;2022-12-20T04:56:26;102376.78;;;3.55;100.00
51297;BME280;37380;45.186;9.792;2022-12-20T04:59:01;102415.78;;;3.77;100.00
51297;BME280;37380;45.186;9.792;2022-12-20T05:01:29;102532.53;;;4.59;100.00
51297;BME280;37380;45.186;9.792;2022-12-20T05:03:57;102526.09;;;4.64;100.00
51297;BME280;37380;45.186;9.792;2022-12-20T05:06:37;102417.97;;;4.02;100.00
51297;BME280;37380;45.186;9.792;2022-12-20T05:09:24;102439.00;;;4.25;100.00
51297;BME280;37380;45.186;9.792;2022-12-20T05:11:53;102398.09;;;4.11;100.00
51297;BME280;37380;45.186;9.792;2022-12-20T05:14:20;102392.06;;;3.92;100.00
51297;BME280;37380;45.186;9.792;2022-12-20T05:16:54;102440.88;;;4.37;100.00
51297;BME280;37380;45.186;9.792;2022-12-20T05:19:48;102383.06;;;3.78;100.00
51297;BME280;37380;45.186;9.792;2022-12-20T05:22:15;102358.44;;;3.81;100.00
51297;BME280;37380;45.186;9.792;2022-12-20T05:25:16;102416.38;;;3.94;100.00
51297;BME280;37380;45.186;9.792;2022-12-20T05:28:29;102367.13;;;3.63;100.00
51297;BME280;37380;45.186;9.792;2022-12-20T05:31:02;102409.19;;;4.10;100.00
51297;BME280;37380;45.186;9.792;2022-12-20T05:33:56;102405.44;;;4.06;100.00
51297;BME280;37380;45.186;9.792;2022-12-20T05:36:28;102503.25;;;4.40;100.00
51297;BME280;37380;45.186;9.792;2022-12-20T05:38:57;102441.06;;;4.19;100.00
51297;BME280;37380;45.186;9.792;2022-12-20T05:41:31;102411.22;;;3.94;100.00
51297;BME280;37380;45.186;9.792;2022-12-20T05:43:59;102404.34;;;3.84;100.00
51297;BME280;37380;45.186;9.792;2022-12-20T05:46:34;102450.88;;;4.13;100.00
51297;BME280;37380;45.186;9.792;2022-12-20T05:49:33;102508.63;;;4.32;100.00
51297;BME280;37380;45.186;9.792;2022-12-20T05:52:28;102506.91;;;4.62;100.00
51297;BME280;37380;45.186;9.792;2022-12-20T05:54:55;102487.94;;;4.32;100.00
51297;BME280;37380;45.186;9.792;2022-12-20T05:57:30;102389.63;;;3.64;100.00
51297;BME280;37380;45.186;9.792;2022-12-20T06:00:33;102292.66;;;3.01;100.00
51297;BME280;37380;45.186;9.792;2022-12-20T06:03:00;102285.59;;;2.89;100.00
51297;BME280;37380;45.186;9.792;2022-12-20T06:05:31;102507.63;;;4.30;100.00
51297;BME280;37380;45.186;9.792;2022-12-20T06:08:06;102491.41;;;4.04;100.00
51297;BME280;37380;45.186;9.792;2022-12-20T06:11:11;102528.78;;;4.26;100.00
51297;BME280;37380;45.186;9.792;2022-12-20T06:13:49;102326.69;;;2.97;100.00
51297;BME280;37380;45.186;9.792;2022-12-20T06:16:17;102341.84;;;2.83;100.00
51297;BME280;37380;45.186;9.792;2022-12-20T06:18:46;102322.66;;;2.90;100.00
51297;BME280;37380;45.186;9.792;2022-12-20T06:21:14;102533.59;;;4.03;100.00
51297;BME280;37380;45.186;9.792;2022-12-20T06:23:42;102527.19;;;4.18;100.00
51297;BME280;37380;45.186;9.792;2022-12-20T06:26:12;102386.03;;;3.24;100.00
51297;BME280;37380;45.186;9.792;2022-12-20T06:28:48;102477.50;;;3.64;100.00
51297;BME280;37380;45.186;9.792;2022-12-20T06:31:33;102543.88;;;3.93;100.00
51297;BME280;37380;45.186;9.792;2022-12-20T06:34:27;102457.66;;;3.54;100.00
51297;BME280;37380;45.186;9.792;2022-12-20T06:36:54;102431.84;;;3.35;100.00
51297;BME280;37380;45.186;9.792;2022-12-20T06:39:25;102466.13;;;3.62;100.00
51297;BME280;37380;45.186;9.792;2022-12-20T06:42:01;102489.56;;;3.74;100.00
51297;BME280;37380;45.186;9.792;2022-12-20T06:44:28;102470.97;;;3.78;100.00
51297;BME280;37380;45.186;9.792;2022-12-20T06:46:56;102526.38;;;4.09;100.00
51297;BME280;37380;45.186;9.792;2022-12-20T06:49:30;102321.75;;;2.89;100.00
51297;BME280;37380;45.186;9.792;2022-12-20T06:52:34;102485.94;;;3.91;100.00
51297;BME280;37380;45.186;9.792;2022-12-20T06:55:47;102513.13;;;3.96;100.00
51297;BME280;37380;45.186;9.792;2022-12-20T06:58:41;102416.81;;;3.50;100.00
51297;BME280;37380;45.186;9.792;2022-12-20T07:01:08;102416.94;;;3.52;100.00
51297;BME280;37380;45.186;9.792;2022-12-20T07:03:35;102532.63;;;4.21;100.00
51297;BME280;37380;45.186;9.792;2022-12-20T07:06:09;102492.72;;;3.99;100.00
51297;BME280;37380;45.186;9.792;2022-12-20T07:09:10;102407.72;;;3.64;100.00
51297;BME280;37380;45.186;9.792;2022-12-20T07:11:46;102472.50;;;3.95;100.00
51297;BME280;37380;45.186;9.792;2022-12-20T07:14:13;102549.50;;;4.26;100.00
51297;BME280;37380;45.186;9.792;2022-12-20T07:16:46;102504.97;;;4.20;100.00
51297;BME280;37380;45.186;9.792;2022-12-20T07:19:41;102471.84;;;3.68;100.00
51297;BME280;37380;45.186;9.792;2022-12-20T07:22:16;102355.84;;;3.33;100.00
51297;BME280;37380;45.186;9.792;2022-12-20T07:24:49;102432.63;;;3.82;100.00
51297;BME280;37380;45.186;9.792;2022-12-20T07:27:47;102439.84;;;3.76;100.00
51297;BME280;37380;45.186;9.792;2022-12-20T07:30:24;102538.75;;;4.51;100.00
51297;BME280;37380;45.186;9.792;2022-12-20T07:33:19;102464.47;;;3.92;100.00
51297;BME280;37380;45.186;9.792;2022-12-20T07:35:46;102397.81;;;3.50;100.00
51297;BME280;37380;45.186;9.792;2022-12-20T07:38:21;102464.53;;;4.02;100.00
51297;BME280;37380;45.186;9.792;2022-12-20T07:40:48;102464.03;;;4.06;100.00
51297;BME280;37380;45.186;9.792;2022-12-20T07:43:15;102548.91;;;4.68;100.00
51297;BME280;37380;45.186;9.792;2022-12-20T07:45:56;102456.50;;;3.99;100.00
51297;BME280;37380;45.186;9.792;2022-12-20T07:48:56;102482.94;;;4.15;100.00
51297;BME280;37380;45.186;9.792;2022-12-20T07:51:55;102470.06;;;3.96;100.00
51297;BME280;37380;45.186;9.792;2022-12-20T07:54:28;102545.38;;;4.28;100.00
51297;BME280;37380;45.186;9.792;2022-12-20T07:57:05;102526.91;;;4.15;100.00
51297;BME280;37380;45.186;9.792;2022-12-20T08:00:11;102557.25;;;4.56;100.00
51297;BME280;37380;45.186;9.792;2022-12-20T08:03:20;102443.13;;;4.23;100.00
51297;BME280;37380;45.186;9.792;2022-12-20T08:05:52;102483.59;;;4.52;100.00
51297;BME280;37380;45.186;9.792;2022-12-20T08:08:26;102434.63;;;4.35;100.00
51297;BME280;37380;45.186;9.792;2022-12-20T08:11:21;102470.16;;;4.56;100.00
51297;BME280;37380;45.186;9.792;2022-12-20T08:13:50;102478.81;;;4.57;100.00
51297;BME280;37380;45.186;9.792;2022-12-20T08:16:29;102457.81;;;4.43;100.00
51297;BME280;37380;45.186;9.792;2022-12-20T08:19:25;102380.72;;;4.10;100.00
51297;BME280;37380;45.186;9.792;2022-12-20T08:21:58;102400.31;;;4.27;100.00
51297;BME280;37380;45.186;9.792;2022-12-20T08:24:25;102481.59;;;4.39;100.00
51297;BME280;37380;45.186;9.792;2022-12-20T08:26:52;102388.91;;;4.15;100.00
51297;BME280;37380;45.186;9.792;2022-12-20T08:29:35;102551.50;;;4.79;100.00
51297;BME280;37380;45.186;9.792;2022-12-20T08:33:53;102416.66;;;3.97;100.00
51297;BME280;37380;45.186;9.792;2022-12-20T08:38:16;102170.22;;;2.69;100.00
51297;BME280;37380;45.186;9.792;2022-12-20T08:42:09;102331.84;;;3.93;100.00
51297;BME280;37380;45.186;9.792;2022-12-20T08:44:58;102540.06;;;5.26;100.00
51297;BME280;37380;45.186;9.792;2022-12-20T08:48:53;102537.31;;;5.14;100.00
51297;BME280;37380;45.186;9.792;2022-12-20T08:53:06;102553.16;;;5.28;100.00
51297;BME280;37380;45.186;9.792;2022-12-20T08:56:35;102300.16;;;4.16;100.00
51297;BME280;37380;45.186;9.792;2022-12-20T08:59:04;102244.81;;;3.44;100.00
51297;BME280;37380;45.186;9.792;2022-12-20T09:01:32;102181.19;;;3.25;100.00
51297;BME280;37380;45.186;9.792;2022-12-20T09:04:16;102523.22;;;5.31;100.00
51297;BME280;37380;45.186;9.792;2022-12-20T09:07:15;102393.81;;;4.82;100.00
51297;BME280;37380;45.186;9.792;2022-12-20T09:10:49;102311.06;;;4.22;100.00
51297;BME280;37380;45.186;9.792;2022-12-20T09:14:03;102564.06;;;5.44;100.00
51297;BME280;37380;45.186;9.792;2022-12-20T09:16:54;102499.00;;;5.10;100.00
51297;BME280;37380;45.186;9.792;2022-12-20T09:19:24;102452.00;;;4.46;100.00
51297;BME280;37380;45.186;9.792;2022-12-20T09:21:54;102575.34;;;5.44;100.00
51297;BME280;37380;45.186;9.792;2022-12-20T09:24:22;102429.03;;;4.69;100.00
51297;BME280;37380;45.186;9.792;2022-12-20T09:26:53;102227.47;;;3.43;100.00
51297;BME280;37380;45.186;9.792;2022-12-20T09:29:36;102476.59;;;5.21;100.00
51297;BME280;37380;45.186;9.792;2022-12-20T09:32:38;102341.91;;;4.60;100.00
51297;BME280;37380;45.186;9.792;2022-12-20T09:35:51;102453.13;;;5.30;100.00
51297;BME280;37380;45.186;9.792;2022-12-20T09:38:45;102553.69;;;5.75;100.00
51297;BME280;37380;45.186;9.792;2022-12-20T09:41:48;102523.38;;;5.53;100.00
51297;BME280;37380;45.186;9.792;2022-12-20T09:45:05;102566.13;;;5.48;100.00
51297;BME280;37380;45.186;9.792;2022-12-20T09:48:12;102315.09;;;4.49;100.00
51297;BME280;37380;45.186;9.792;2022-12-20T10:00:52;102330.22;;;4.44;100.00
51297;BME280;37380;45.186;9.792;2022-12-20T10:03:32;102528.78;;;5.66;100.00
51297;BME280;37380;45.186;9.792;2022-12-20T10:06:40;102444.28;;;5.48;100.00
51297;BME280;37380;45.186;9.792;2022-12-20T10:10:08;102517.63;;;5.88;100.00
51297;BME280;37380;45.186;9.792;2022-12-20T10:16:57;102294.88;;;4.75;100.00
51297;BME280;37380;45.186;9.792;2022-12-20T10:20:18;102514.44;;;6.23;100.00
51297;BME280;37380;45.186;9.792;2022-12-20T10:23:08;102234.00;;;4.91;100.00
51297;BME280;37380;45.186;9.792;2022-12-20T10:25:40;102144.53;;;4.42;100.00
51297;BME280;37380;45.186;9.792;2022-12-20T10:28:15;102469.13;;;5.77;100.00
51297;BME280;37380;45.186;9.792;2022-12-20T10:30:52;102389.53;;;5.65;100.00
51297;BME280;37380;45.186;9.792;2022-12-20T10:33:46;102295.69;;;5.27;100.00
51297;BME280;37380;45.186;9.792;2022-12-20T10:38:48;102425.97;;;6.09;100.00
51297;BME280;37380;45.186;9.792;2022-12-20T10:41:27;102414.88;;;6.00;100.00
51297;BME280;37380;45.186;9.792;2022-12-20T10:46:43;102415.28;;;5.42;100.00
51297;BME280;37380;45.186;9.792;2022-12-20T10:49:31;102467.16;;;5.95;100.00
51297;BME280;37380;45.186;9.792;2022-12-20T10:52:26;102390.41;;;5.34;100.00
51297;BME280;37380;45.186;9.792;2022-12-20T10:54:54;102447.63;;;5.57;100.00
51297;BME280;37380;45.186;9.792;2022-12-20T10:57:24;102427.53;;;5.55;100.00
51297;BME280;37380;45.186;9.792;2022-12-20T10:59:56;102440.06;;;5.81;100.00
51297;BME280;37380;45.186;9.792;2022-12-20T11:02:36;102435.38;;;5.87;100.00
51297;BME280;37380;45.186;9.792;2022-12-20T11:05:21;102444.63;;;6.16;100.00
51297;BME280;37380;45.186;9.792;2022-12-20T11:08:23;102335.97;;;5.34;100.00
51297;BME280;37380;45.186;9.792;2022-12-20T11:11:32;102355.34;;;5.49;100.00
51297;BME280;37380;45.186;9.792;2022-12-20T11:14:13;102132.56;;;4.12;100.00
51297;BME280;37380;45.186;9.792;2022-12-20T11:16:44;102336.31;;;5.49;100.00
51297;BME280;37380;45.186;9.792;2022-12-20T11:19:40;102422.31;;;5.75;100.00
51297;BME280;37380;45.186;9.792;2022-12-20T11:35:18;102417.63;;;6.13;100.00
51297;BME280;37380;45.186;9.792;2022-12-20T11:39:03;102278.88;;;5.22;100.00
51297;BME280;37380;45.186;9.792;2022-12-20T11:45:14;102410.63;;;5.80;100.00
51297;BME280;37380;45.186;9.792;2022-12-20T11:54:03;102375.88;;;6.10;100.00
51297;BME280;37380;45.186;9.792;2022-12-20T11:57:20;102030.59;;;4.30;100.00
51297;BME280;37380;45.186;9.792;2022-12-20T12:00:32;102000.09;;;4.80;100.00
51297;BME280;37380;45.186;9.792;2022-12-20T12:03:23;101997.47;;;5.02;100.00
51297;BME280;37380;45.186;9.792;2022-12-20T12:06:04;102229.88;;;6.47;100.00
51297;BME280;37380;45.186;9.792;2022-12-20T12:09:29;102354.81;;;6.40;100.00
51297;BME280;37380;45.186;9.792;2022-12-20T12:12:32;102351.69;;;6.89;100.00
51297;BME280;37380;45.186;9.792;2022-12-20T12:18:19;102053.72;;;4.71;100.00
51297;BME280;37380;45.186;9.792;2022-12-20T12:20:53;102345.63;;;6.33;100.00
51297;BME280;37380;45.186;9.792;2022-12-20T12:23:47;102338.88;;;6.69;100.00
51297;BME280;37380;45.186;9.792;2022-12-20T12:26:21;102093.75;;;5.18;100.00
51297;BME280;37380;45.186;9.792;2022-12-20T12:28:58;102097.47;;;5.22;100.00
51297;BME280;37380;45.186;9.792;2022-12-20T12:35:22;101945.53;;;4.89;100.00
51297;BME280;37380;45.186;9.792;2022-12-20T12:38:50;101925.31;;;5.07;100.00
51297;BME280;37380;45.186;9.792;2022-12-20T12:47:20;101895.91;;;4.72;100.00
51297;BME280;37380;45.186;9.792;2022-12-20T12:49:57;102302.69;;;7.17;100.00
51297;BME280;37380;45.186;9.792;2022-12-20T12:52:49;101916.91;;;5.33;100.00
51297;BME280;37380;45.186;9.792;2022-12-20T12:55:52;101977.81;;;5.61;100.00
51297;BME280;37380;45.186;9.792;2022-12-20T12:59:25;102017.44;;;5.94;100.00
51297;BME280;37380;45.186;9.792;2022-12-20T13:05:36;102278.38;;;7.40;100.00
51297;BME280;37380;45.186;9.792;2022-12-20T13:19:14;101889.69;;;4.37;100.00
51297;BME280;37380;45.186;9.792;2022-12-20T13:22:23;102274.00;;;6.92;100.00
51297;BME280;37380;45.186;9.792;2022-12-20T13:25:49;102279.72;;;6.76;100.00
51297;BME280;37380;45.186;9.792;2022-12-20T13:34:56;102066.97;;;5.63;100.00
51297;BME280;37380;45.186;9.792;2022-12-20T13:37:38;102098.72;;;5.49;100.00
51297;BME280;37380;45.186;9.792;2022-12-20T13:41:00;101851.72;;;4.25;100.00
51297;BME280;37380;45.186;9.792;2022-12-20T13:57:31;101873.72;;;4.20;100.00
51297;BME280;37380;45.186;9.792;2022-12-20T14:00:25;102130.91;;;5.41;100.00
51297;BME280;37380;45.186;9.792;2022-12-20T14:03:44;101917.94;;;4.23;100.00
51297;BME280;37380;45.186;9.792;2022-12-20T14:07:23;102258.16;;;6.20;100.00
51297;BME280;37380;45.186;9.792;2022-12-20T14:10:53;102201.09;;;5.76;100.00
51297;BME280;37380;45.186;9.792;2022-12-20T14:25:53;102251.88;;;6.06;100.00
51297;BME280;37380;45.186;9.792;2022-12-20T14:29:09;101849.84;;;3.91;100.00
51297;BME280;37380;45.186;9.792;2022-12-20T14:32:25;102232.63;;;6.15;100.00
51297;BME280;37380;45.186;9.792;2022-12-20T14:51:43;101922.59;;;3.95;100.00
51297;BME280;37380;45.186;9.792;2022-12-20T15:20:20;102003.22;;;4.54;100.00
51297;BME280;37380;45.186;9.792;2022-12-20T16:06:33;102211.16;;;5.61;100.00
51297;BME280;37380;45.186;9.792;2022-12-20T16:11:00;102202.59;;;5.62;100.00
51297;BME280;37380;45.186;9.792;2022-12-20T16:20:56;102256.09;;;5.50;100.00
51297;BME280;37380;45.186;9.792;2022-12-20T16:24:45;102200.59;;;5.48;100.00
51297;BME280;37380;45.186;9.792;2022-12-20T16:43:30;102144.78;;;5.19;100.00
51297;BME280;37380;45.186;9.792;2022-12-20T16:46:04;102173.66;;;5.46;100.00
51297;BME280;37380;45.186;9.792;2022-12-20T16:48:32;102171.88;;;5.79;100.00
51297;BME280;37380;45.186;9.792;2022-12-20T16:50:59;102076.31;;;4.84;100.00
51297;BME280;37380;45.186;9.792;2022-12-20T16:53:26;102097.22;;;4.97;100.00
51297;BME280;37380;45.186;9.792;2022-12-20T16:56:09;102154.09;;;5.17;100.00
51297;BME280;37380;45.186;9.792;2022-12-20T16:58:42;102094.03;;;4.89;100.00
51297;BME280;37380;45.186;9.792;2022-12-20T17:02:21;102068.66;;;4.63;100.00
51297;BME280;37380;45.186;9.792;2022-12-20T17:05:30;102168.81;;;5.29;100.00
51297;BME280;37380;45.186;9.792;2022-12-20T17:08:07;102120.25;;;5.04;100.00
51297;BME280;37380;45.186;9.792;2022-12-20T17:11:30;102205.28;;;5.64;100.00
51297;BME280;37380;45.186;9.792;2022-12-20T17:14:24;102140.16;;;5.15;100.00
51297;BME280;37380;45.186;9.792;2022-12-20T17:22:46;102200.25;;;5.65;100.00
51297;BME280;37380;45.186;9.792;2022-12-20T17:27:15;102116.81;;;5.15;100.00
51297;BME280;37380;45.186;9.792;2022-12-20T17:31:41;102036.69;;;4.85;100.00
51297;BME280;37380;45.186;9.792;2022-12-20T17:41:21;102228.94;;;5.79;100.00
51297;BME280;37380;45.186;9.792;2022-12-20T17:47:03;101860.44;;;3.61;100.00
51297;BME280;37380;45.186;9.792;2022-12-20T17:51:14;102180.78;;;5.71;100.00
51297;BME280;37380;45.186;9.792;2022-12-20T17:54:20;102184.91;;;5.68;100.00
51297;BME280;37380;45.186;9.792;2022-12-20T17:57:20;101780.25;;;3.39;100.00
51297;BME280;37380;45.186;9.792;2022-12-20T18:00:15;101759.09;;;3.33;100.00
51297;BME280;37380;45.186;9.792;2022-12-20T18:04:00;101821.34;;;3.47;100.00
51297;BME280;37380;45.186;9.792;2022-12-20T18:07:13;101909.63;;;4.27;100.00
51297;BME280;37380;45.186;9.792;2022-12-20T18:10:31;102151.81;;;5.32;100.00
51297;BME280;37380;45.186;9.792;2022-12-20T18:13:32;101778.97;;;3.34;100.00
51297;BME280;37380;45.186;9.792;2022-12-20T18:16:59;101873.13;;;3.80;100.00
51297;BME280;37380;45.186;9.792;2022-12-20T18:20:21;101944.13;;;4.16;100.00
51297;BME280;37380;45.186;9.792;2022-12-20T18:23:30;101958.97;;;4.19;100.00
51297;BME280;37380;45.186;9.792;2022-12-20T18:27:16;101809.56;;;3.40;100.00
51297;BME280;37380;45.186;9.792;2022-12-20T18:30:08;101831.88;;;3.60;100.00
51297;BME280;37380;45.186;9.792;2022-12-20T18:33:13;102189.09;;;5.44;100.00
51297;BME280;37380;45.186;9.792;2022-12-20T18:36:23;102129.28;;;5.09;100.00
51297;BME280;37380;45.186;9.792;2022-12-20T18:39:03;101962.06;;;4.25;100.00
51297;BME280;37380;45.186;9.792;2022-12-20T18:41:46;101934.63;;;4.27;100.00
51297;BME280;37380;45.186;9.792;2022-12-20T18:44:22;102023.91;;;4.76;100.00
51297;BME280;37380;45.186;9.792;2022-12-20T18:48:00;102079.88;;;4.96;100.00
51297;BME280;37380;45.186;9.792;2022-12-20T18:50:38;101805.53;;;3.54;100.00
51297;BME280;37380;45.186;9.792;2022-12-20T18:54:01;101973.44;;;4.71;100.00
51297;BME280;37380;45.186;9.792;2022-12-20T18:56:41;101851.34;;;3.99;100.00
51297;BME280;37380;45.186;9.792;2022-12-20T18:59:56;101736.41;;;2.97;100.00
51297;BME280;37380;45.186;9.792;2022-12-20T19:02:31;101936.84;;;4.22;100.00
51297;BME280;37380;45.186;9.792;2022-12-20T19:05:09;102190.44;;;5.61;100.00
51297;BME280;37380;45.186;9.792;2022-12-20T19:11:41;102160.44;;;5.65;100.00
51297;BME280;37380;45.186;9.792;2022-12-20T19:14:39;101968.88;;;4.35;100.00